• Join FlightAware (Why Join?)
  • Login
  • US Flag 
04:13AM EDT


 

Airport Tracker/Info


-or-


 

Live Flight TrackerFlight Track Log ✈ CES5527 ✈ 24-Jan-2014 ✈ ZSSS / SHA - ZHLY / LYA

Flight Track Log - Related Links

Times and Time Zones

All times are in EST time to prevent confusion due to time zone crossing. See the CES5527 flight status page for this flight to view local times or setup timezone preferences in your user account.

Time Position Orientation Groundspeed Altitude Reporting Facility
EST Latitude Longitude Course Direction KTS MPH feet Rate Location/Type
07:31AM 31.1892 121.3329 177° South 158 182 500  Level FlightAware ADS-B (ZSSS / SHA)
07:31AM 31.1788 121.3333 178° South 142 163 1,400 2,520 Climbing FlightAware ADS-B (ZSSS / SHA)
07:32AM 31.1650 121.3338 178° South 152 175 2,000 1,800 Climbing FlightAware ADS-B (ZSSS / SHA)
07:32AM 31.1548 121.3345 177° South 153 176 2,500 1,980 Climbing FlightAware ADS-B (ZSSS / SHA)
07:32AM 31.1441 121.3352 177° South 153 176 3,000 1,620 Climbing FlightAware ADS-B (ZSSS / SHA)
07:32AM 31.1337 121.3357 177° South 168 193 3,300 1,200 Climbing FlightAware ADS-B (ZSSS / SHA)
07:33AM 31.1207 121.3364 178° South 186 214 3,600 1,200 Climbing FlightAware ADS-B (ZSSS / SHA)
07:33AM 31.1063 121.3372 177° South 207 238 3,900 960 Climbing FlightAware ADS-B (ZSSS / SHA)
07:33AM 31.0911 121.3381 177° South 227 261 4,100 1,200 Climbing FlightAware ADS-B (ZSSS / SHA)
07:33AM 31.0743 121.3383 179° South 240 276 4,500 1,800 Climbing FlightAware ADS-B (ZSSS / SHA)
07:34AM 31.0607 121.3334 197° South 252 290 5,000 2,100 Climbing FlightAware ADS-B (ZSSS / SHA)
07:34AM 31.0543 121.3278 217° Southwest 251 289 5,200 1,980 Climbing FlightAware ADS-B (ZSSS / SHA)
07:34AM 31.0509 121.3237 226° Southwest 251 289 5,300 1,560 Climbing FlightAware ADS-B (ZSSS / SHA)
07:34AM 31.0444 121.3114 239° Southwest 252 290 5,600 1,500 Climbing FlightAware ADS-B (ZSSS / SHA)
07:34AM 31.0432 121.3072 251° West 253 291 5,700 300 Climbing FlightAware ADS-B (ZSSS / SHA)
07:35AM 31.0461 121.2661 275° West 260 299 5,800 480 Climbing FlightAware ADS-B (ZSSS / SHA)
07:35AM 31.0510 121.2362 281° West 259 298 6,100 1,560 Climbing FlightAware ADS-B (ZSSS / SHA)
07:35AM 31.0543 121.2153 280° West 265 305 6,700 2,460 Climbing FlightAware ADS-B (ZSSS / SHA)
07:35AM 31.0573 121.1958 280° West 270 311 7,300 2,640 Climbing FlightAware ADS-B (ZSSS / SHA)
07:36AM 31.0608 121.1731 280° West 273 314 8,000 1,980 Climbing FlightAware ADS-B (ZSSS / SHA)
07:37AM 31.1602 121.1211 336° Northwest 323 372 10,800 1,620 Climbing FlightAware ADS-B (ZSSS / SHA)
07:38AM 31.2076 121.1179 357° North 354 407 11,300 1,320 Climbing FlightAware ADS-B (ZSSS / SHA)
07:38AM 31.2242 121.1172 358° North 360 414 11,700 2,700 Climbing FlightAware ADS-B (ZSSS / SHA)
07:38AM 31.2752 121.1172 360° North 361 415 13,100 2,460 Climbing FlightAware ADS-B (ZSSS / SHA)
07:39AM 31.3252 121.1171 360° North 371 427 14,200 1,980 Climbing FlightAware ADS-B (ZSSS / SHA)
07:39AM 31.3785 121.1168 360° North 384 442 15,100 2,100 Climbing FlightAware ADS-B (ZSSS / SHA)
07:40AM 31.4315 121.1166 360° North 387 445 16,300 2,460 Climbing FlightAware ADS-B (ZSSS / SHA)
07:40AM 31.4480 121.1142 353° North 380 437 16,700 2,640 Climbing FlightAware ADS-B (ZSSS / SHA)
07:42AM 31.5111 120.9661 297° West  Level Estimated
07:43AM 31.5501 120.8744 297° West  Level Estimated
07:44AM 31.5890 120.7826 296° West  Level Estimated
07:45AM 31.6278 120.6907 296° West  Level Estimated
07:46AM 31.6666 120.5987 296° West  Level Estimated
07:47AM 31.7053 120.5067 296° West  Level Estimated
07:48AM 31.7439 120.4146 296° West  Level Estimated
07:49AM 31.7825 120.3224 296° West  Level Estimated
07:50AM 31.8210 120.2301 296° West  Level Estimated
07:51AM 31.8594 120.1378 296° West  Level Estimated
07:52AM 31.8978 120.0454 296° West  Level Estimated
07:53AM 31.9361 119.9529 296° West  Level Estimated
07:54AM 31.9743 119.8603 296° West  Level Estimated
07:55AM 32.0125 119.7677 296° West  Level Estimated
07:56AM 32.0506 119.6750 296° West  Level Estimated
07:57AM 32.0886 119.5822 296° West  Level Estimated
07:58AM 32.1266 119.4893 296° West  Level Estimated
07:59AM 32.1645 119.3963 296° West  Level Estimated
08:00AM 32.2024 119.3033 296° West  Level Estimated
08:01AM 32.2401 119.2102 296° West  Level Estimated
08:02AM 32.2778 119.1170 296° West  Level Estimated
08:03AM 32.3154 119.0237 296° West  Level Estimated
08:04AM 32.3530 118.9304 295° West  Level Estimated
08:05AM 32.3905 118.8370 295° West  Level Estimated
08:06AM 32.4279 118.7435 295° West  Level Estimated
08:07AM 32.4652 118.6499 295° West  Level Estimated
08:08AM 32.5025 118.5562 295° West  Level Estimated
08:09AM 32.5397 118.4625 295° West  Level Estimated
08:10AM 32.5769 118.3687 295° West  Level Estimated
08:11AM 32.6139 118.2748 295° West  Level Estimated
08:12AM 32.6510 118.1808 295° West  Level Estimated
08:13AM 32.6879 118.0868 295° West  Level Estimated
08:14AM 32.7247 117.9927 295° West  Level Estimated
08:15AM 32.7615 117.8985 295° West  Level Estimated
08:16AM 32.7982 117.8042 295° West  Level Estimated
08:17AM 32.8349 117.7099 295° West  Level Estimated
08:18AM 32.8715 117.6154 295° West  Level Estimated
08:19AM 32.9080 117.5209 295° West  Level Estimated
08:20AM 32.9444 117.4263 295° West  Level Estimated
08:21AM 32.9808 117.3317 295° West  Level Estimated
08:22AM 33.0171 117.2369 295° West  Level Estimated
08:23AM 33.0533 117.1421 295° West  Level Estimated
08:24AM 33.0895 117.0472 294° West  Level Estimated
08:25AM 33.1255 116.9522 294° West  Level Estimated
08:26AM 33.1591 116.8637 294° West  Level Estimated
08:27AM 33.1926 116.7751 294° West  Level Estimated
08:28AM 33.2260 116.6864 294° West  Level Estimated
08:29AM 33.2593 116.5977 294° West  Level Estimated
08:30AM 33.2926 116.5089 294° West  Level Estimated
08:31AM 33.3258 116.4200 294° West  Level Estimated
08:32AM 33.3590 116.3311 294° West  Level Estimated
08:33AM 33.3921 116.2421 294° West  Level Estimated
08:34AM 33.4251 116.1530 294° West  Level Estimated
08:35AM 33.4581 116.0639 294° West  Level Estimated
08:36AM 33.4910 115.9747 294° West  Level Estimated
08:37AM 33.5238 115.8854 294° West  Level Estimated
08:38AM 33.5566 115.7961 294° West  Level Estimated
08:39AM 33.5893 115.7067 294° West  Level Estimated
08:40AM 33.6220 115.6172 294° West  Level Estimated
08:41AM 33.6546 115.5276 294° West  Level Estimated
08:42AM 33.6871 115.4380 294° West  Level Estimated
08:43AM 33.7195 115.3484 294° West  Level Estimated
08:44AM 33.7519 115.2586 293° West  Level Estimated
08:45AM 33.7843 115.1688 293° West  Level Estimated
08:46AM 33.8165 115.0789 293° West  Level Estimated
08:47AM 33.8487 114.9890 293° West  Level Estimated
08:48AM 33.8808 114.8989 293° West  Level Estimated
08:49AM 33.9129 114.8089 293° West  Level Estimated
08:50AM 33.9449 114.7187 293° West  Level Estimated
08:51AM 33.9768 114.6285 293° West  Level Estimated
08:52AM 34.0087 114.5382 293° West  Level Estimated
08:53AM 34.0405 114.4478 293° West  Level Estimated
08:54AM 34.0722 114.3574 293° West  Level Estimated
08:55AM 34.1039 114.2669 293° West  Level Estimated
08:56AM 34.1355 114.1764 293° West  Level Estimated
08:57AM 34.1670 114.0857 293° West  Level Estimated
08:58AM 34.1985 113.9950 293° West  Level Estimated
08:59AM 34.2299 113.9043 293° West  Level Estimated
09:00AM 34.2612 113.8134 293° West  Level Estimated
09:01AM 34.2925 113.7225 293° West  Level Estimated
09:02AM 34.3237 113.6316 293° West  Level Estimated
09:03AM 34.3548 113.5405 293° West  Level Estimated
09:04AM 34.3859 113.4494 292° West  Level Estimated
09:05AM 34.4169 113.3583 292° West  Level Estimated
09:06AM 34.4478 113.2670 292° West  Level Estimated
09:07AM 34.4787 113.1757 292° West  Level Estimated
09:08AM 34.5095 113.0844 292° West  Level Estimated
09:09AM 34.5402 112.9929 292° West  Level Estimated
09:10AM 34.5709 112.9014 292° West  Level Estimated
09:11AM 34.6015 112.8098 292° West  Level Estimated
09:12AM 34.6320 112.7182 292° West  Level Estimated
09:13AM 34.6624 112.6265 292° West  Level Estimated
09:14AM 34.6928 112.5347 292° West  Level Estimated
09:15AM 34.7231 112.4429 292° West  Level Estimated
09:16AM 34.7411 112.3883 292° West  Level Estimated
09:17AM 34.7411 112.3883 68° East  Level Estimated
09:18AM 34.7411 112.3883 68° East  Level Estimated
09:19AM 34.7411 112.3883 68° East  Level Estimated
09:20AM 34.7411 112.3883 68° East  Level Estimated
09:21AM 34.7411 112.3883 68° East  Level Estimated
09:22AM 34.7411 112.3883 68° East  Level Estimated
09:23AM 34.7411 112.3883 68° East  Level Estimated
09:24AM 34.7411 112.3883 68° East  Level Estimated
09:25AM 34.7411 112.3883 68° East  Level Estimated
09:26AM 34.7411 112.3883 68° East  Level Estimated
09:27AM 34.7411 112.3883 68° East  Level Estimated
09:28AM 34.7411 112.3883 68° East  Level Estimated
09:29AM 34.7411 112.3883 68° East  Level Estimated